Louis Armstrong New Orleans International Airport New Orleans US
ICAO: KMSY
IATA: MSY
Category: Large
Scheduled Services: Yes

Elevation: 4 ft
TransAlt. 18000 ft.

Airport Communications:
NEW ORLEANS APP/DEP:123.85
ATIS:127.55
CLNC DEL:127.2
GND:121.9
TWR:119.5
UNICOM:122.95

KMSY Zoom In..

Runways:

(A) RW 01 length 7001 ft width 150 ft
ILS 111.70 / hdg 13

(B) RW 10 length 10104 ft width 150 ft
ILS 109.90 / hdg 103

(C) RW 19 length 7001 ft width 150 ft
LOC 111.70 / hdg 193

(D) RW 28 length 10104 ft width 150 ft
ILS 109.90 / hdg 283

Location; KMSY
Day. 20 / Time. 09.53 Zulu
* Altimeter: 30.22
* Temperature: 14° c. 57.2°f.
* Wind from: 050° Speed 14 kn with Gusts up to 20 kn.
Dewpoint: 05° c.
Visibility: 10 Statute Miles.
Clouds: Scattered 25000 ft.

KMSY 200953Z 05014G20KT 10SM SCT250 14/05 A3022 RMK AO2 SLP235 T01390050


Wind From 050°
Speed 14 kn.

  YouTube Music Video
 
jpsmedia.com for Web Design  worldairports.se 2018   terms of use